Farmington, MO

7:40 PM CDT on July 30, 2014 (GMT -0500)
Farmington Regional (KFAM) Elev 945 ft | 37.76 °N, 90.43 °W | Change Station

Current weather conditions updated 5 minutes ago

Clear
Clear
72 °F
Feels Like 72 °F
N
0
Wind Variable Wind from North

Tomorrow is forecast to be Warmer than today. Afternoon showers.

Today
High -- | Low -- °F
--% Chance of Precip.
Yesterday
High -- | Low -- °F
Precip. -- in
6:03 AM 8:12 PM
Waxing Crescent, 14% visible
Pressure 30.09 in
Visibility 10.0 miles
Clouds Clear
Dew Point 63 °F
Humidity 73%
Rainfall 0.00 in
Snow Depth Not available.
UV 0 out of 12
Pollen 6.70 out of 12
Air Quality Not available.
Flu Activity Not available.
METAR KFAM 310035Z AUTO 00000KT 10SM CLR 22/17 A3009 RMK AO1

More Conditions Fewer Conditions

Pressure 30.09 in
Visibility 10.0 miles
Clouds Clear
Dew Point 63 °F
Humidity 73%
Rainfall 0.00 in
Snow Depth Not available.
UV 0 out of 12
Pollen 6.70 out of 12
Air Quality Not available.
Flu Activity Not available.
METAR KFAM 310035Z AUTO 00000KT 10SM CLR 22/17 A3009 RMK AO1

More Conditions Fewer Conditions

10-Day Weather Forecast

Almanac

Astronomy

Jul. 30, 2014 Rise Set
Actual Time 6:03 AM CDT 8:12 PM CDT
Civil Twilight 5:34 AM CDT 8:41 PM CDT
Nautical Twilight 4:58 AM CDT 9:17 PM CDT
Astronomical Twilight 4:19 AM CDT 9:55 PM CDT
Moon 9:30 AM CDT (7/30) 10:00 PM CDT (7/30)
Length of Visible Light 15h 07m
Length of Day
14h 08m
Tomorrow will be 1m 48s shorter.
Waxing Crescent, 14% of the Moon is Illuminated
Today
Waxing Crescent
Aug 3
First Quarter
Aug 10
Full
Aug 17
Last Quarter
Aug 25
New

Today's Extremes

State Highs State Lows

Community

WunderPhotos

Upload Photos

1,739,261 photos uploaded!

Nearby

Snow Depth

Station Depth Elevation
No new snow has been reported.

Earthquake Activity

City Distance Mag. Time & Date
No recent earthquake activity has been reported nearby.
Minimum magnitude displayed is 2.5.

Coastal Water Temperatures

Place Temperature
No Stations Reporting

Nearby Weather Stations

Station Location Temp. Heat Index Dew Point Humidity Wind Precip. Elev Updated Type
RAWS FARMINGTON MO, French Village, MO 76 °F 78 °F 63 °F 64% South  at  5 mph 0.00 in / hr 945 ft 7:00 PM CDT MADIS
TurtleCreekFarm, Bismarck, MO 70.8 °F - 66 °F 85% SSW  at  0.0 mph 0.00 in / hr 1040 ft 7:36 PM CDT Normal
Bismarck, MO 72.7 °F 74 °F 64 °F 75% South  at  0.0 mph 0.00 in / hr 1000 ft 7:40 PM CDT Normal
Lake Forest, Ste Genevieve, MO 75.7 °F 75 °F 15 °F 10% South  at  0.7 mph 0.00 in / hr 522 ft 7:40 PM CDT Rapid Fire
MesoWest MNERPT , Mineral Point, MO 77 °F 75 °F - - North  at  - 0.00 in / hr 958 ft 6:00 PM CDT MADIS
Ste Genevieve county, Festus, MO 72.5 °F - - - North  at  - 0.00 in / hr 705 ft 7:36 PM CDT Normal

Show More Stations Show Fewer Stations